Terminal Aerodrome Forecast
Issued by NWS

Home | Current Version | Previous Version | Text Only | Print | Product List | Glossary On
Versions: 1 2 3 4 5 6 7 8 9 10 11 12 13 14 15 16 17 18 19 20 21 22 23 24 25 26 27 28 29 30 31 32 33
000
FTUS44 KHGX 012354
TAFSGR
TAF
KSGR 012354Z 0200/0224 16014KT P6SM FEW035
     FM020500 16004KT P6SM SCT030 SCT250
      TEMPO 0207/0211 MIFG BKN025
     FM021100 16006KT P6SM BKN027
     FM021600 14009KT P6SM VCTS SCT035CB SCT250
      TEMPO 0217/0221 TSRA BKN040CB
     FM022300 15010KT P6SM SCT040 SCT250=

USA.gov is the U.S. government's official web portal to all federal, state and local government web resources and services.